createdAt,value
2023-03-15T00:02:02.430Z,80.90
2023-03-15T00:04:35.096Z,80.90
2023-03-15T00:07:04.218Z,80.70
2023-03-15T00:09:33.387Z,80.90
2023-03-15T00:12:02.789Z,81.00
2023-03-15T00:14:31.996Z,81.10
2023-03-15T00:17:01.116Z,81.20
2023-03-15T00:19:30.410Z,81.10
2023-03-15T00:21:59.521Z,80.90
2023-03-15T00:24:28.801Z,80.90
2023-03-15T00:26:58.074Z,80.90
2023-03-15T00:29:27.576Z,81.10
2023-03-15T00:31:56.631Z,81.30
2023-03-15T00:34:26.012Z,81.50
2023-03-15T00:36:55.096Z,81.80
2023-03-15T00:39:25.872Z,81.90
2023-03-15T00:41:56.957Z,82.00
2023-03-15T00:44:28.142Z,82.20
2023-03-15T00:46:57.292Z,82.50
2023-03-15T00:49:26.399Z,82.70
2023-03-15T00:51:56.002Z,82.90
2023-03-15T00:54:25.205Z,82.90
2023-03-15T00:56:54.570Z,82.80
2023-03-15T00:59:23.788Z,82.50
2023-03-15T01:01:52.867Z,82.20
2023-03-15T01:04:24.589Z,81.80
2023-03-15T01:06:53.790Z,81.40
2023-03-15T01:09:23.895Z,81.20
2023-03-15T01:11:52.988Z,80.90
2023-03-15T01:14:22.252Z,80.60
2023-03-15T01:16:51.575Z,80.30
2023-03-15T01:19:20.701Z,80.10
2023-03-15T01:21:49.739Z,79.90
2023-03-15T01:24:19.762Z,79.40
2023-03-15T01:26:51.097Z,79.20
2023-03-15T01:29:20.220Z,79.00
2023-03-15T01:31:49.492Z,78.60
2023-03-15T01:34:18.875Z,78.40
2023-03-15T01:36:55.079Z,78.20
2023-03-15T01:39:30.803Z,77.90
2023-03-15T01:41:59.977Z,77.70
2023-03-15T01:45:00.126Z,77.60
2023-03-15T01:47:29.582Z,77.70
2023-03-15T01:50:06.588Z,77.60
2023-03-15T01:52:39.147Z,77.60
2023-03-15T01:55:16.063Z,77.50
2023-03-15T01:58:02.228Z,77.30
2023-03-15T02:00:33.402Z,77.00
2023-03-15T02:03:18.927Z,76.70
2023-03-15T02:05:56.682Z,76.30
2023-03-15T02:08:43.929Z,76.40
2023-03-15T02:11:13.810Z,76.20
2023-03-15T02:13:45.129Z,76.10
2023-03-15T02:16:14.489Z,76.70
2023-03-15T02:18:48.833Z,76.20
2023-03-15T02:21:25.984Z,76.30
2023-03-15T02:24:21.254Z,76.50
2023-03-15T02:26:55.206Z,76.20
2023-03-15T02:29:27.120Z,76.00
2023-03-15T02:31:57.878Z,75.90
2023-03-15T02:34:27.935Z,75.80
2023-03-15T02:36:57.631Z,75.90
2023-03-15T02:39:29.604Z,75.80
2023-03-15T02:41:59.581Z,75.50
2023-03-15T02:44:37.196Z,75.30
2023-03-15T02:47:11.667Z,75.10
2023-03-15T02:49:43.680Z,75.10
2023-03-15T02:52:14.131Z,75.10
2023-03-15T02:54:43.904Z,75.10
2023-03-15T02:57:14.439Z,74.90
2023-03-15T02:59:44.102Z,74.80
2023-03-15T03:02:14.552Z,74.70
2023-03-15T03:04:45.718Z,75.20
2023-03-15T03:07:15.373Z,74.50
2023-03-15T03:09:49.771Z,74.40
2023-03-15T03:12:20.313Z,74.40
2023-03-15T03:14:50.090Z,74.40
2023-03-15T03:17:23.821Z,74.50
2023-03-15T03:19:53.230Z,74.50
2023-03-15T03:22:28.740Z,74.60
2023-03-15T03:24:57.829Z,74.70
2023-03-15T03:27:27.147Z,74.80
2023-03-15T03:29:56.314Z,74.70
2023-03-15T03:32:25.682Z,74.40
2023-03-15T03:34:55.508Z,74.60
2023-03-15T03:37:25.881Z,74.70
2023-03-15T03:40:08.378Z,74.80
2023-03-15T03:42:38.333Z,74.70
2023-03-15T03:45:08.673Z,74.80
2023-03-15T03:47:45.044Z,74.80
2023-03-15T03:50:14.151Z,74.70
2023-03-15T03:52:43.984Z,74.60
2023-03-15T03:55:18.829Z,74.70
2023-03-15T03:57:48.081Z,74.70
2023-03-15T04:00:26.579Z,74.60
2023-03-15T04:02:56.101Z,74.40
2023-03-15T04:05:25.365Z,74.30
2023-03-15T04:07:54.620Z,74.30
2023-03-15T04:10:26.937Z,74.10
2023-03-15T04:12:57.289Z,73.70
2023-03-15T04:15:27.282Z,73.70
2023-03-15T04:17:56.671Z,73.50
2023-03-15T04:20:27.948Z,73.50
2023-03-15T04:22:57.079Z,73.50
2023-03-15T04:25:36.633Z,73.50
2023-03-15T04:28:17.644Z,73.20
2023-03-15T04:30:58.955Z,73.00
2023-03-15T04:33:40.374Z,72.40
2023-03-15T04:36:29.982Z,71.60
2023-03-15T04:39:17.976Z,70.90
2023-03-15T04:42:10.200Z,70.50
2023-03-15T04:44:54.945Z,70.20
2023-03-15T04:47:41.233Z,69.90
2023-03-15T04:50:34.699Z,69.80
2023-03-15T04:53:17.747Z,69.90
2023-03-15T04:56:10.809Z,69.70
2023-03-15T04:59:03.589Z,69.50
2023-03-15T05:01:51.327Z,69.30
2023-03-15T05:04:23.529Z,69.50
2023-03-15T05:07:15.516Z,69.50
2023-03-15T05:10:06.848Z,69.20
2023-03-15T05:12:38.770Z,69.00
2023-03-15T05:15:37.121Z,69.00
2023-03-15T05:18:18.863Z,68.50
2023-03-15T05:21:09.425Z,68.10
2023-03-15T05:23:58.791Z,68.10
2023-03-15T05:26:47.918Z,67.80
2023-03-15T05:29:35.571Z,67.90
2023-03-15T05:32:27.723Z,68.00
2023-03-15T05:35:15.563Z,67.80
2023-03-15T05:38:05.922Z,67.80
2023-03-15T05:41:06.626Z,67.70
2023-03-15T05:43:51.744Z,67.60
2023-03-15T05:46:59.103Z,67.50
2023-03-15T05:49:42.545Z,67.30
2023-03-15T05:52:30.957Z,67.20
2023-03-15T05:55:13.283Z,66.90
2023-03-15T05:58:08.494Z,66.60
2023-03-15T06:01:02.292Z,66.60
2023-03-15T06:03:51.025Z,66.50
2023-03-15T06:08:15.377Z,66.30
2023-03-15T06:10:48.195Z,65.70
2023-03-15T06:13:18.398Z,65.60
2023-03-15T06:15:48.299Z,65.40
2023-03-15T06:18:19.343Z,64.90
2023-03-15T06:20:51.091Z,64.60
2023-03-15T06:23:21.557Z,64.40
2023-03-15T06:25:51.835Z,64.30
2023-03-15T06:28:22.797Z,63.70
2023-03-15T06:30:57.033Z,63.50
2023-03-15T06:33:34.189Z,63.40
2023-03-15T06:36:04.303Z,63.10
2023-03-15T06:38:33.783Z,63.00
2023-03-15T06:41:05.235Z,62.90
2023-03-15T06:43:36.707Z,62.70
2023-03-15T06:46:06.021Z,63.00
2023-03-15T06:48:35.422Z,63.00
2023-03-15T06:51:06.051Z,62.60
2023-03-15T06:53:35.162Z,62.40
2023-03-15T06:56:04.844Z,62.10
2023-03-15T06:58:33.971Z,61.90
2023-03-15T07:01:03.528Z,61.70
2023-03-15T07:03:32.842Z,61.40
2023-03-15T07:06:01.903Z,60.80
2023-03-15T07:08:31.015Z,60.20
2023-03-15T07:11:00.178Z,59.60
2023-03-15T07:13:29.243Z,59.40
2023-03-15T07:15:58.583Z,59.20
2023-03-15T07:18:27.800Z,59.00
2023-03-15T07:20:58.704Z,58.60
2023-03-15T07:23:28.151Z,58.50
2023-03-15T07:25:57.341Z,58.30
2023-03-15T07:28:27.652Z,57.80
2023-03-15T07:31:01.859Z,57.40
2023-03-15T07:33:32.826Z,57.20
2023-03-15T07:36:04.417Z,57.10
2023-03-15T07:38:35.629Z,56.80
2023-03-15T07:41:06.703Z,56.80
2023-03-15T07:43:35.883Z,56.70
2023-03-15T07:46:15.807Z,56.70
2023-03-15T07:48:44.975Z,56.70
2023-03-15T07:51:14.159Z,56.80
2023-03-15T07:53:43.383Z,57.20
2023-03-15T07:56:12.465Z,56.50
2023-03-15T07:58:41.616Z,56.60
2023-03-15T08:01:10.749Z,56.70
2023-03-15T08:03:39.890Z,56.50
2023-03-15T08:06:08.991Z,56.40
2023-03-15T08:08:38.103Z,56.30
2023-03-15T08:11:07.217Z,56.30
2023-03-15T08:13:36.524Z,56.30
2023-03-15T08:16:05.828Z,56.10
2023-03-15T08:18:35.145Z,56.00
2023-03-15T08:21:04.434Z,55.80
2023-03-15T08:23:33.551Z,55.80
2023-03-15T08:26:02.679Z,55.70
2023-03-15T08:28:31.780Z,55.80
2023-03-15T08:31:00.905Z,55.60
2023-03-15T08:33:30.550Z,55.50
2023-03-15T08:35:59.691Z,55.10
2023-03-15T08:38:28.781Z,54.90
2023-03-15T08:40:58.590Z,54.80
2023-03-15T08:43:27.932Z,54.70
2023-03-15T08:46:00.954Z,54.70
2023-03-15T08:48:31.671Z,54.50
2023-03-15T08:51:05.414Z,54.20
2023-03-15T08:53:35.563Z,54.20
2023-03-15T08:56:04.742Z,53.90
2023-03-15T08:58:34.675Z,53.60
2023-03-15T09:01:05.055Z,53.50
2023-03-15T09:03:34.418Z,53.40
2023-03-15T09:06:03.674Z,53.10
2023-03-15T09:08:33.504Z,52.80
2023-03-15T09:11:02.658Z,52.90
2023-03-15T09:13:31.752Z,52.70
2023-03-15T09:16:00.883Z,52.60
2023-03-15T09:18:31.210Z,52.50
2023-03-15T09:21:01.737Z,52.20
2023-03-15T09:23:30.871Z,52.20
2023-03-15T09:26:00.121Z,51.80
2023-03-15T09:28:29.551Z,51.60
2023-03-15T09:31:00.038Z,51.30
2023-03-15T09:33:29.259Z,51.20
2023-03-15T09:35:58.368Z,51.10
2023-03-15T09:38:27.592Z,50.90
2023-03-15T09:40:59.057Z,50.70
2023-03-15T09:43:58.509Z,50.50
2023-03-15T09:46:32.780Z,50.00
2023-03-15T09:49:13.096Z,49.20
2023-03-15T09:51:51.147Z,48.70
2023-03-15T09:54:29.314Z,48.50
2023-03-15T09:57:06.898Z,48.40
2023-03-15T09:59:42.896Z,48.10
2023-03-15T10:02:19.485Z,47.90
2023-03-15T10:04:51.966Z,47.80
2023-03-15T10:07:21.150Z,47.70
2023-03-15T10:09:50.237Z,47.40
2023-03-15T10:12:26.624Z,47.10
2023-03-15T10:15:43.155Z,46.90
2023-03-15T10:18:40.639Z,46.40
2023-03-15T10:21:29.543Z,46.20
2023-03-15T10:23:59.516Z,45.70
2023-03-15T10:26:34.974Z,45.20
2023-03-15T10:29:12.138Z,45.00
2023-03-15T10:31:44.861Z,44.80
2023-03-15T10:34:15.866Z,44.70
2023-03-15T10:36:49.304Z,44.60
2023-03-15T10:39:19.392Z,44.50
2023-03-15T10:41:50.799Z,44.60
2023-03-15T10:44:25.931Z,44.40
2023-03-15T10:47:21.351Z,43.70
2023-03-15T10:49:59.268Z,43.40
2023-03-15T10:52:31.860Z,43.20
2023-03-15T10:55:28.793Z,43.10
2023-03-15T10:58:02.456Z,42.80
2023-03-15T11:00:33.825Z,42.30
2023-03-15T11:03:08.210Z,41.60
2023-03-15T11:05:43.559Z,41.00
2023-03-15T11:08:20.781Z,40.40
2023-03-15T11:11:00.271Z,40.10
2023-03-15T11:13:32.524Z,39.40
2023-03-15T11:16:04.537Z,39.30
2023-03-15T11:18:58.810Z,39.00
2023-03-15T11:21:33.733Z,38.60
2023-03-15T11:24:06.076Z,38.50
2023-03-15T11:26:38.755Z,38.70
2023-03-15T11:29:35.490Z,38.70
2023-03-15T11:32:15.483Z,38.80
2023-03-15T11:34:53.298Z,38.80
2023-03-15T11:37:32.987Z,38.60
2023-03-15T11:40:13.226Z,38.60
2023-03-15T11:42:58.197Z,38.50
2023-03-15T11:45:35.701Z,38.30
2023-03-15T11:48:59.672Z,38.00
2023-03-15T11:51:34.642Z,37.70
2023-03-15T11:54:16.323Z,37.40
2023-03-15T11:57:34.661Z,37.10
2023-03-15T12:00:38.621Z,36.50
2023-03-15T12:03:34.476Z,36.20
2023-03-15T12:06:11.122Z,35.90
2023-03-15T12:08:52.332Z,35.90
2023-03-15T12:11:21.479Z,35.70
2023-03-15T12:13:53.367Z,35.80
2023-03-15T12:16:23.986Z,35.80
2023-03-15T12:18:57.592Z,35.90
2023-03-15T12:21:39.237Z,35.90
2023-03-15T12:24:21.626Z,35.80
2023-03-15T12:27:01.134Z,35.70
2023-03-15T12:29:32.692Z,35.60
2023-03-15T12:32:01.829Z,35.60
2023-03-15T12:34:37.345Z,35.30
2023-03-15T12:37:09.566Z,35.00
2023-03-15T12:39:43.510Z,35.20
2023-03-15T12:42:31.907Z,35.10
2023-03-15T12:45:15.948Z,34.80
2023-03-15T12:47:51.458Z,34.70
2023-03-15T12:50:53.144Z,35.10
2023-03-15T12:53:39.107Z,34.10
2023-03-15T12:56:40.456Z,34.10
2023-03-15T12:59:17.822Z,34.40
2023-03-15T13:01:47.248Z,34.40
2023-03-15T13:04:16.494Z,34.20
2023-03-15T13:07:15.993Z,34.20
2023-03-15T13:10:06.744Z,34.30
2023-03-15T13:12:44.647Z,34.50
2023-03-15T13:15:23.196Z,34.80
2023-03-15T13:18:03.756Z,34.70
2023-03-15T13:20:49.176Z,34.80
2023-03-15T13:23:23.606Z,35.00
2023-03-15T13:26:12.947Z,35.30
2023-03-15T13:29:06.486Z,35.70
2023-03-15T13:31:35.628Z,35.80
2023-03-15T13:34:24.208Z,35.80
2023-03-15T13:36:58.844Z,35.90
2023-03-15T13:39:33.482Z,36.10
2023-03-15T13:42:19.737Z,36.30
2023-03-15T13:44:48.836Z,36.40
2023-03-15T13:47:23.816Z,36.10
2023-03-15T13:49:53.252Z,36.00
2023-03-15T13:52:22.870Z,36.00
2023-03-15T13:54:54.078Z,35.70
2023-03-15T13:57:23.855Z,35.60
2023-03-15T14:00:02.053Z,35.70
2023-03-15T14:02:43.137Z,35.80
2023-03-15T14:05:17.625Z,35.70
2023-03-15T14:07:51.233Z,35.70
2023-03-15T14:10:23.232Z,35.50
2023-03-15T14:12:53.772Z,35.50
2023-03-15T14:15:44.315Z,35.50
2023-03-15T14:18:24.773Z,35.20
2023-03-15T14:21:02.849Z,35.40
2023-03-15T14:23:32.961Z,35.30
2023-03-15T14:26:10.536Z,35.00
2023-03-15T14:28:40.991Z,34.70
2023-03-15T14:31:23.360Z,34.60
2023-03-15T14:34:01.052Z,34.70
2023-03-15T14:36:40.363Z,34.80
2023-03-15T14:39:35.683Z,34.80
2023-03-15T14:42:05.389Z,34.90
2023-03-15T14:44:34.571Z,35.10
2023-03-15T14:47:14.150Z,35.40
2023-03-15T14:49:43.351Z,35.60
2023-03-15T14:52:13.490Z,35.50
2023-03-15T14:54:49.727Z,35.10
2023-03-15T14:57:19.001Z,34.80
2023-03-15T14:59:50.160Z,34.70
2023-03-15T15:02:19.442Z,34.80
2023-03-15T15:04:48.604Z,35.00
2023-03-15T15:07:18.411Z,35.00
2023-03-15T15:09:50.393Z,35.10
2023-03-15T15:12:19.650Z,34.80
2023-03-15T15:14:48.720Z,34.90
2023-03-15T15:17:17.821Z,35.00
2023-03-15T15:19:47.187Z,34.50
2023-03-15T15:22:17.984Z,34.50
2023-03-15T15:24:47.228Z,34.40
2023-03-15T15:27:16.346Z,34.40
2023-03-15T15:29:45.433Z,34.60
2023-03-15T15:32:14.575Z,34.80
2023-03-15T15:34:43.649Z,35.00
2023-03-15T15:37:12.849Z,35.10
2023-03-15T15:39:42.022Z,35.10
2023-03-15T15:42:11.395Z,35.20
2023-03-15T15:44:41.532Z,35.30
2023-03-15T15:47:10.841Z,35.50
2023-03-15T15:49:41.442Z,35.50
2023-03-15T15:52:13.949Z,35.60
2023-03-15T15:54:43.316Z,35.70
2023-03-15T15:57:12.614Z,35.70
2023-03-15T15:59:41.821Z,35.70
2023-03-15T16:02:15.602Z,35.80
2023-03-15T16:04:44.818Z,35.90
2023-03-15T16:07:15.225Z,35.90
2023-03-15T16:09:46.437Z,36.20
2023-03-15T16:12:18.606Z,36.50
2023-03-15T16:14:47.924Z,36.70
2023-03-15T16:17:25.285Z,36.90
2023-03-15T16:19:54.904Z,36.90
2023-03-15T16:22:25.089Z,37.00
2023-03-15T16:24:57.836Z,37.20
2023-03-15T16:27:28.568Z,37.30
2023-03-15T16:29:57.749Z,37.30
2023-03-15T16:32:42.884Z,37.70
2023-03-15T16:35:17.178Z,38.10
2023-03-15T16:37:46.729Z,38.90
2023-03-15T16:40:23.204Z,38.50
2023-03-15T16:42:52.985Z,38.70
2023-03-15T16:45:22.548Z,39.00
2023-03-15T16:47:51.785Z,39.20
2023-03-15T16:50:20.880Z,39.40
2023-03-15T16:52:53.079Z,39.70
2023-03-15T16:55:28.248Z,40.00
2023-03-15T16:57:57.504Z,40.50
2023-03-15T17:00:26.984Z,40.40
2023-03-15T17:03:00.017Z,40.20
2023-03-15T17:05:29.150Z,40.20
2023-03-15T17:08:00.763Z,40.20
2023-03-15T17:10:31.783Z,40.30
2023-03-15T17:13:02.121Z,40.50
2023-03-15T17:15:31.286Z,40.40
2023-03-15T17:18:00.754Z,40.30
2023-03-15T17:20:30.356Z,40.10
2023-03-15T17:23:04.315Z,40.20
2023-03-15T17:25:34.495Z,40.40
2023-03-15T17:28:05.211Z,40.50
2023-03-15T17:30:36.275Z,40.60
2023-03-15T17:33:05.964Z,40.20
2023-03-15T17:35:44.060Z,40.10
2023-03-15T17:38:21.815Z,40.00
2023-03-15T17:40:51.480Z,40.10
2023-03-15T17:43:20.656Z,40.20
2023-03-15T17:45:50.232Z,40.20
2023-03-15T17:48:19.441Z,40.20
2023-03-15T17:50:48.626Z,39.90
2023-03-15T17:53:19.567Z,39.40
2023-03-15T17:55:49.248Z,39.00
2023-03-15T17:58:20.950Z,38.80
2023-03-15T18:00:51.288Z,38.90
2023-03-15T18:03:21.315Z,38.90
2023-03-15T18:05:51.058Z,39.00
2023-03-15T18:08:21.398Z,39.10
2023-03-15T18:10:51.744Z,39.40
2023-03-15T18:13:26.361Z,39.50
2023-03-15T18:15:55.707Z,39.70
2023-03-15T18:18:24.782Z,39.80
2023-03-15T18:20:54.052Z,40.00
2023-03-15T18:23:23.161Z,40.00
2023-03-15T18:25:52.368Z,40.10
2023-03-15T18:28:21.477Z,40.30
2023-03-15T18:30:50.678Z,40.50
2023-03-15T18:33:19.796Z,40.80
2023-03-15T18:35:49.118Z,40.80
2023-03-15T18:38:18.306Z,41.00
2023-03-15T18:40:47.535Z,41.10
2023-03-15T18:43:16.967Z,41.10
2023-03-15T18:45:46.170Z,41.00
2023-03-15T18:48:15.310Z,41.10
2023-03-15T18:50:44.537Z,41.20
2023-03-15T18:53:13.924Z,41.30
2023-03-15T18:55:44.614Z,41.50
2023-03-15T18:58:13.737Z,41.70
2023-03-15T19:00:42.896Z,41.90
2023-03-15T19:03:12.038Z,41.90
2023-03-15T19:05:41.898Z,41.70
2023-03-15T19:08:11.161Z,41.60
2023-03-15T19:10:40.454Z,41.60
2023-03-15T19:13:09.566Z,41.70
2023-03-15T19:15:38.852Z,41.80
2023-03-15T19:18:08.009Z,42.50
2023-03-15T19:20:37.247Z,42.00
2023-03-15T19:23:06.361Z,42.00
2023-03-15T19:25:35.522Z,42.00
2023-03-15T19:28:05.092Z,42.00
2023-03-15T19:30:34.324Z,42.00
2023-03-15T19:33:04.107Z,42.10
2023-03-15T19:35:33.742Z,42.20
2023-03-15T19:38:03.103Z,42.30
2023-03-15T19:40:32.231Z,42.30
2023-03-15T19:43:01.347Z,42.40
2023-03-15T19:45:30.500Z,42.40
2023-03-15T19:47:59.603Z,42.30
2023-03-15T19:50:31.342Z,42.30
2023-03-15T19:53:00.528Z,42.30
2023-03-15T19:55:31.721Z,42.40
2023-03-15T19:58:01.165Z,42.40
2023-03-15T20:00:30.822Z,42.40
2023-03-15T20:03:00.096Z,42.40
2023-03-15T20:05:29.256Z,42.50
2023-03-15T20:07:58.357Z,42.60
2023-03-15T20:10:27.610Z,42.60
2023-03-15T20:12:59.497Z,42.80
2023-03-15T20:15:29.524Z,42.80
2023-03-15T20:17:58.747Z,42.90
2023-03-15T20:20:27.965Z,42.90
2023-03-15T20:22:57.102Z,43.10
2023-03-15T20:25:26.216Z,43.30
2023-03-15T20:27:55.350Z,43.50
2023-03-15T20:30:24.924Z,43.50
2023-03-15T20:32:54.725Z,43.40
2023-03-15T20:35:23.930Z,43.50
2023-03-15T20:37:53.680Z,43.60
2023-03-15T20:40:23.398Z,43.70
2023-03-15T20:42:53.164Z,43.70
2023-03-15T20:45:22.266Z,43.70
2023-03-15T20:47:51.375Z,43.80
2023-03-15T20:50:20.894Z,43.80
2023-03-15T20:52:50.341Z,43.80
2023-03-15T20:55:19.477Z,43.90
2023-03-15T20:57:48.617Z,43.90
2023-03-15T21:00:20.008Z,43.90
2023-03-15T21:02:49.422Z,43.90
2023-03-15T21:05:19.232Z,44.00
2023-03-15T21:07:48.393Z,44.10
2023-03-15T21:10:17.635Z,44.30
2023-03-15T21:12:46.772Z,44.40
2023-03-15T21:15:17.969Z,44.60
2023-03-15T21:17:50.595Z,45.00
2023-03-15T21:20:19.731Z,45.20
2023-03-15T21:22:48.849Z,45.60
2023-03-15T21:25:18.112Z,45.80
2023-03-15T21:27:47.354Z,46.10
2023-03-15T21:30:16.554Z,46.30
2023-03-15T21:32:45.898Z,46.40
2023-03-15T21:35:17.192Z,46.50
2023-03-15T21:37:46.363Z,46.60
2023-03-15T21:40:15.802Z,46.70
2023-03-15T21:42:47.707Z,46.80
2023-03-15T21:45:17.212Z,47.00
2023-03-15T21:47:47.056Z,47.10
2023-03-15T21:50:16.433Z,47.30
2023-03-15T21:52:45.608Z,47.60
2023-03-15T21:55:15.518Z,47.70
2023-03-15T21:57:44.846Z,47.80
2023-03-15T22:00:19.691Z,47.90
2023-03-15T22:02:49.411Z,48.60
2023-03-15T22:05:18.999Z,48.00
2023-03-15T22:07:48.151Z,47.80
2023-03-15T22:10:19.287Z,47.80
2023-03-15T22:12:48.661Z,47.80
2023-03-15T22:15:17.787Z,47.90
2023-03-15T22:17:47.366Z,48.00
2023-03-15T22:20:17.114Z,48.10
2023-03-15T22:22:47.673Z,48.20
2023-03-15T22:25:17.263Z,48.30
2023-03-15T22:27:46.367Z,48.60
2023-03-15T22:30:16.034Z,48.80
2023-03-15T22:32:45.194Z,48.90
2023-03-15T22:35:16.060Z,48.90
2023-03-15T22:37:45.195Z,49.00
2023-03-15T22:40:14.498Z,49.30
2023-03-15T22:42:44.322Z,49.60
2023-03-15T22:45:13.563Z,49.80
2023-03-15T22:47:42.692Z,49.80
2023-03-15T22:50:13.455Z,49.80
2023-03-15T22:52:42.852Z,49.80
2023-03-15T22:55:12.744Z,49.70
2023-03-15T22:57:41.907Z,49.70
2023-03-15T23:00:13.767Z,49.80
2023-03-15T23:02:44.430Z,49.70
2023-03-15T23:05:14.255Z,49.70
2023-03-15T23:07:43.741Z,49.90
2023-03-15T23:10:13.930Z,50.50
2023-03-15T23:12:43.101Z,50.60
2023-03-15T23:15:14.565Z,51.10
2023-03-15T23:17:47.024Z,51.40
2023-03-15T23:22:48.161Z,51.20
2023-03-15T23:25:20.256Z,52.00
2023-03-15T23:27:50.323Z,52.10
2023-03-15T23:30:19.620Z,52.30
2023-03-15T23:32:52.440Z,52.50
2023-03-15T23:35:22.297Z,52.80
2023-03-15T23:37:53.164Z,53.30
2023-03-15T23:40:22.716Z,53.50
2023-03-15T23:42:58.875Z,53.70
2023-03-15T23:45:30.096Z,54.00
2023-03-15T23:47:59.299Z,54.00
2023-03-15T23:50:29.424Z,54.20
2023-03-15T23:52:58.736Z,54.40
2023-03-15T23:55:27.895Z,56.50
2023-03-15T23:57:56.955Z,55.50
